Time;durP1;ratioP1;P1;durP2;ratioP2;P2;SDS_P1;SDS_P2;PMS_P1;PMS_P2;Temp;Humidity;BMP_temperature;BMP_pressure;BME280_temperature;BME280_humidity;BME280_pressure;Samples;Min_cycle;Max_cycle;Signal;HPM_P1;HPM_P2
2021/09/25 05:02:54;;;;;;;5.25;4.75;;;;;;;15.36;61.91;95211.56;4987996;28;20099;-84
2021/09/25 05:05:20;;;;;;;6.30;5.03;;;;;;;13.08;67.08;95178.75;4955946;28;20399;-84
2021/09/25 05:07:45;;;;;;;5.95;4.38;;;;;;;11.63;75.93;95204.16;4955430;28;20061;-84
2021/09/25 05:10:11;;;;;;;5.63;5.13;;;;;;;14.34;67.56;95189.59;4956794;28;20022;-83
2021/09/25 05:12:36;;;;;;;7.07;5.40;;;;;;;17.21;56.72;95193.38;4955243;28;20121;-83
2021/09/25 05:15:02;;;;;;;5.72;5.32;;;;;;;17.76;54.55;95184.91;4956558;28;20030;-83
2021/09/25 05:17:27;;;;;;;5.95;5.47;;;;;;;19.07;50.43;95188.41;4955148;28;20023;-83
2021/09/25 05:19:53;;;;;;;6.15;4.85;;;;;;;18.47;52.11;95184.66;4972517;28;20027;-82
2021/09/25 05:22:19;;;;;;;96.68;7.88;;;;;;;18.83;51.57;95181.38;4971457;28;20022;-83
2021/09/25 05:24:45;;;;;;;4.75;4.28;;;;;;;17.75;55.78;95230.50;4956651;28;20034;-82
2021/09/25 05:27:11;;;;;;;6.18;4.80;;;;;;;16.38;60.21;95231.41;4956125;28;20462;-82
2021/09/25 05:29:37;;;;;;;217.02;13.23;;;;;;;14.92;64.58;95225.75;4987620;28;20034;-82
2021/09/25 05:32:03;;;;;;;5.28;4.88;;;;;;;16.13;62.75;95204.22;4972512;28;20278;-81
2021/09/25 05:34:29;;;;;;;5.75;5.35;;;;;;;17.42;57.90;95236.81;4954711;28;20070;-82
2021/09/25 05:36:56;;;;;;;6.70;6.10;;;;;;;15.80;62.26;95244.13;4989656;28;20037;-82
2021/09/25 05:39:21;;;;;;;7.00;6.43;;;;;;;15.56;64.15;95236.81;4987030;28;20108;-82
2021/09/25 05:41:47;;;;;;;80.93;7.65;;;;;;;16.49;62.30;95232.63;4971846;28;20475;-82
2021/09/25 05:44:12;;;;;;;5.35;4.95;;;;;;;16.68;61.62;95252.78;4955680;28;20022;-84
2021/09/25 05:46:38;;;;;;;675.75;29.17;;;;;;;16.89;58.55;95215.94;4987602;28;20018;-82
2021/09/25 05:49:03;;;;;;;3.95;3.65;;;;;;;16.97;59.81;95241.91;4971850;28;20197;-82
2021/09/25 05:51:29;;;;;;;4.22;3.65;;;;;;;16.38;60.38;95234.00;4987109;28;20076;-83
2021/09/25 05:53:54;;;;;;;3.88;3.58;;;;;;;18.13;57.51;95243.63;4988039;28;20491;-82
2021/09/25 05:56:20;;;;;;;3.80;3.40;;;;;;;21.98;45.30;95198.63;4986414;28;20027;-82
2021/09/25 05:58:45;;;;;;;4.07;3.78;;;;;;;24.67;39.98;95223.38;4971855;28;20034;-82
2021/09/25 06:01:11;;;;;;;4.07;3.70;;;;;;;25.67;37.04;95219.09;4986651;28;20579;-81
2021/09/25 06:03:36;;;;;;;18.90;4.22;;;;;;;25.71;36.42;95209.56;4988084;28;20055;-80
2021/09/25 06:06:02;;;;;;;4.43;3.95;;;;;;;27.38;33.41;95216.00;4987164;28;20031;-81
2021/09/25 06:08:27;;;;;;;6.82;5.05;;;;;;;26.13;34.51;95185.56;4954750;28;20030;-77
2021/09/25 06:10:53;;;;;;;4.63;4.07;;;;;;;28.98;31.76;95230.78;4987972;28;20030;-79
2021/09/25 06:13:18;;;;;;;27.80;5.22;;;;;;;28.94;31.42;95229.72;4986431;28;20030;-81
2021/09/25 06:15:46;;;;;;;44.92;4.63;;;;;;;28.70;31.37;95235.00;4971648;28;20034;-84
2021/09/25 06:18:13;;;;;;;;;;;;;;;29.36;30.21;95261.97;4987050;28;20030;-83
2021/09/25 06:20:39;;;;;;;4.35;3.95;;;;;;;30.64;28.74;95254.97;4988124;28;20273;-87
2021/09/25 06:23:04;;;;;;;5.18;4.00;;;;;;;31.05;27.94;95231.13;4988348;28;20034;-85
2021/09/25 06:25:30;;;;;;;495.27;21.00;;;;;;;31.04;27.29;95245.56;4971602;28;20042;-84
2021/09/25 06:27:55;;;;;;;106.68;7.45;;;;;;;32.45;26.12;95245.69;4971932;28;20101;-84
2021/09/25 06:30:21;;;;;;;3.85;3.55;;;;;;;31.33;26.81;95232.78;4986513;28;20026;-86
2021/09/25 06:32:46;;;;;;;41.00;5.75;;;;;;;31.31;27.73;95234.94;4988023;28;20030;-83
2021/09/25 06:35:12;;;;;;;5.30;3.60;;;;;;;31.86;27.23;95262.66;4953728;28;20492;-86
2021/09/25 06:37:38;;;;;;;52.45;6.20;;;;;;;33.23;25.72;95258.69;4972042;28;20030;-85
2021/09/25 06:40:05;;;;;;;395.52;17.25;;;;;;;32.17;26.67;95226.13;4987987;28;20050;-91
2021/09/25 06:42:31;;;;;;;4.33;3.33;;;;;;;33.06;25.53;95253.19;4956126;28;20484;-79
2021/09/25 06:44:56;;;;;;;44.28;4.68;;;;;;;32.46;26.26;95255.34;4955156;28;20373;-89
2021/09/25 06:47:22;;;;;;;6.00;4.70;;;;;;;32.76;25.55;95248.50;4970741;28;20026;-85
2021/09/25 06:49:47;;;;;;;3.60;3.30;;;;;;;33.70;24.70;95254.59;4988350;28;20038;-90
2021/09/25 06:52:12;;;;;;;4.15;3.85;;;;;;;34.30;24.24;95259.44;4987389;28;20463;-85
2021/09/25 06:54:38;;;;;;;58.30;5.68;;;;;;;33.90;24.46;95240.63;4988904;28;20029;-84
2021/09/25 06:57:05;;;;;;;1006.10;38.90;;;;;;;32.96;25.80;95266.06;4986687;28;20507;-86
2021/09/25 06:59:30;;;;;;;59.47;4.60;;;;;;;33.09;25.28;95249.13;4988004;28;20499;-81
2021/09/25 07:01:56;;;;;;;5.30;3.20;;;;;;;34.24;24.77;95264.19;4987603;28;20047;-85
2021/09/25 07:04:21;;;;;;;6.93;3.45;;;;;;;33.36;25.34;95278.56;4986714;28;20034;-81
2021/09/25 07:06:47;;;;;;;3.70;3.40;;;;;;;34.56;24.19;95267.56;4987060;28;20050;-84
2021/09/25 07:09:12;;;;;;;51.38;8.73;;;;;;;34.87;23.99;95282.53;4986192;28;20035;-88
2021/09/25 07:11:38;;;;;;;4.78;3.90;;;;;;;35.09;23.71;95270.84;4971719;28;20026;-85
2021/09/25 07:14:03;;;;;;;4.38;3.85;;;;;;;33.16;25.66;95268.31;4986420;28;20047;-85
2021/09/25 07:16:29;;;;;;;21.98;5.05;;;;;;;27.77;32.00;95263.34;4971292;28;20433;-83
2021/09/25 07:18:54;;;;;;;4.20;3.90;;;;;;;25.43;37.28;95258.47;4985741;28;20048;-81
2021/09/25 07:21:20;;;;;;;5.60;3.90;;;;;;;25.12;36.94;95236.25;4987856;28;20484;-79
2021/09/25 07:23:45;;;;;;;3.55;3.25;;;;;;;25.87;36.54;95267.00;4970553;28;20026;-82
2021/09/25 07:26:11;;;;;;;5.13;4.07;;;;;;;25.21;38.04;95273.69;4954584;28;20025;-81
2021/09/25 07:28:36;;;;;;;4.30;3.90;;;;;;;24.74;38.82;95275.38;4989782;28;20034;-86
2021/09/25 07:31:02;;;;;;;6.68;4.47;;;;;;;24.49;39.21;95238.84;4973123;28;20030;-79
2021/09/25 07:33:28;;;;;;;63.92;6.30;;;;;;;24.82;39.74;95285.56;4974475;28;20456;-82
2021/09/25 07:35:53;;;;;;;5.10;3.85;;;;;;;23.83;41.43;95243.34;4989435;28;20408;-81
2021/09/25 07:38:19;;;;;;;5.55;4.13;;;;;;;24.07;41.23;95273.84;4990651;28;20033;-79
2021/09/25 07:40:44;;;;;;;7.28;4.97;;;;;;;24.51;40.47;95269.31;4973481;28;20076;-86
2021/09/25 07:43:10;;;;;;;6.57;4.30;;;;;;;24.28;41.43;95274.91;4990617;28;20101;-82
2021/09/25 07:45:35;;;;;;;66.18;5.55;;;;;;;24.19;41.27;95241.16;4990353;28;20101;-84
2021/09/25 07:48:01;;;;;;;5.97;4.10;;;;;;;23.78;42.42;95247.78;4973278;28;20030;-81
2021/09/25 07:50:27;;;;;;;5.32;3.67;;;;;;;24.48;41.23;95274.31;4990596;28;20034;-83
2021/09/25 07:52:56;;;;;;;109.55;7.22;;;;;;;23.75;42.58;95266.81;4990831;28;20391;-80
2021/09/25 07:55:21;;;;;;;101.00;7.15;;;;;;;23.38;42.98;95258.56;4990392;28;20036;-83
2021/09/25 07:57:47;;;;;;;83.90;7.63;;;;;;;23.42;43.79;95239.38;4989183;28;20038;-86
2021/09/25 08:00:13;;;;;;;37.90;5.95;;;;;;;23.35;44.48;95272.28;4990495;28;20043;-80
2021/09/25 08:02:40;;;;;;;4.63;4.22;;;;;;;23.90;43.46;95280.22;4956597;28;20445;-81
2021/09/25 08:05:06;;;;;;;6.38;4.13;;;;;;;23.93;43.93;95272.59;4973512;28;20037;-87
2021/09/25 08:07:32;;;;;;;65.28;5.82;;;;;;;24.55;42.79;95256.38;4973984;28;20034;-80
2021/09/25 08:09:57;;;;;;;7.82;4.35;;;;;;;24.73;41.75;95269.28;4972682;28;20069;-85
2021/09/25 08:12:23;;;;;;;83.47;7.40;;;;;;;24.28;43.21;95274.09;4990439;28;20026;-82
2021/09/25 08:14:48;;;;;;;586.40;33.13;;;;;;;24.12;43.35;95246.66;4990100;28;20030;-88
2021/09/25 08:17:14;;;;;;;145.45;9.20;;;;;;;24.28;42.72;95259.00;4974633;28;20109;-82
2021/09/25 08:19:39;;;;;;;301.10;16.08;;;;;;;24.50;42.51;95278.31;4972379;28;20031;-84
2021/09/25 08:22:05;;;;;;;6.60;3.80;;;;;;;24.73;42.20;95255.22;4991659;28;20030;-83
2021/09/25 08:24:30;;;;;;;331.17;22.67;;;;;;;24.35;43.11;95250.88;4957063;28;20034;-80
2021/09/25 08:26:56;;;;;;;10.55;5.35;;;;;;;24.73;42.36;95266.63;4989604;28;20464;-82
2021/09/25 08:29:22;;;;;;;145.05;9.65;;;;;;;24.64;41.92;95255.69;4989895;28;20031;-81
2021/09/25 08:31:47;;;;;;;5.20;3.78;;;;;;;24.79;42.43;95262.19;4955993;28;20030;-89
2021/09/25 08:34:13;;;;;;;4.10;3.80;;;;;;;25.11;42.23;95273.59;4991150;28;20034;-86
2021/09/25 08:36:39;;;;;;;6.78;3.78;;;;;;;24.74;42.26;95267.44;4989364;28;20554;-87
2021/09/25 08:39:05;;;;;;;33.45;4.93;;;;;;;25.32;41.10;95262.13;4990785;28;20073;-85
2021/09/25 08:41:32;;;;;;;7.75;3.70;;;;;;;24.66;43.04;95245.63;4988696;28;20085;-85
2021/09/25 08:43:58;;;;;;;6.43;3.63;;;;;;;25.31;41.59;95270.31;4957230;28;20096;-87
2021/09/25 08:46:23;;;;;;;5.20;3.67;;;;;;;24.96;42.54;95263.69;4991221;28;20451;-84
2021/09/25 08:48:49;;;;;;;8.63;4.50;;;;;;;25.62;40.24;95274.81;4972735;28;20097;-84
2021/09/25 08:51:14;;;;;;;6.03;3.47;;;;;;;25.54;40.08;95241.59;4958014;28;20034;-79
2021/09/25 08:53:40;;;;;;;8.60;4.28;;;;;;;25.74;40.08;95266.66;4989157;28;20076;-86
2021/09/25 08:56:05;;;;;;;57.53;5.25;;;;;;;25.73;39.80;95271.16;4989598;28;20034;-84
2021/09/25 08:58:31;;;;;;;4.38;3.45;;;;;;;25.98;38.19;95268.63;4988671;28;20026;-91
2021/09/25 09:00:56;;;;;;;117.45;6.97;;;;;;;25.66;39.96;95252.81;4989486;28;20050;-83
2021/09/25 09:03:28;;;;;;;373.08;18.08;;;;;;;26.02;39.15;95260.94;4972557;28;20026;-84
2021/09/25 09:06:02;;;;;;;340.38;18.98;;;;;;;26.13;38.38;95249.31;4989554;28;20484;-83
2021/09/25 09:08:27;;;;;;;2.97;2.78;;;;;;;26.19;38.80;95258.94;4973927;28;20035;-83
2021/09/25 09:10:53;;;;;;;6.00;5.05;;;;;;;26.49;38.39;95263.53;4988920;28;20081;-80
2021/09/25 09:13:19;;;;;;;334.63;16.13;;;;;;;26.16;38.04;95256.78;4973094;28;20019;-84
2021/09/25 09:15:48;;;;;;;4.78;2.90;;;;;;;26.30;38.69;95249.91;4954805;28;20462;-82
2021/09/25 09:18:14;;;;;;;;;;;;;;;26.14;37.61;95251.69;4989435;28;20100;-86
2021/09/25 09:20:39;;;;;;;3.97;3.00;;;;;;;26.38;37.92;95251.28;4988547;28;20362;-88
2021/09/25 09:23:12;;;;;;;58.72;5.57;;;;;;;26.61;37.91;95240.97;4989736;28;20015;-91
2021/09/25 09:25:39;;;;;;;82.75;5.30;;;;;;;26.91;38.00;95244.75;4990632;28;20503;-85
2021/09/25 09:28:13;;;;;;;3.95;3.47;;;;;;;26.44;37.85;95251.03;4987430;28;20508;-89
2021/09/25 09:30:48;;;;;;;228.45;12.52;;;;;;;26.64;38.64;95229.00;4990113;28;20022;-81
2021/09/25 09:33:47;;;;;;;94.40;8.57;;;;;;;26.83;36.22;95232.78;4955441;28;20037;-76
2021/09/25 09:36:20;;;;;;;55.50;5.40;;;;;;;27.27;37.19;95254.31;4977505;28;20031;-80
2021/09/25 09:38:50;;;;;;;3.08;2.78;;;;;;;26.84;36.19;95228.28;4988640;28;20499;-80
2021/09/25 09:41:21;;;;;;;86.93;6.07;;;;;;;26.92;35.66;95219.75;4971342;28;20113;-81
2021/09/25 09:43:46;;;;;;;61.33;6.28;;;;;;;27.37;35.52;95253.50;4988480;28;20042;-86
2021/09/25 09:46:13;;;;;;;4.18;2.33;;;;;;;27.20;36.80;95248.47;4987394;28;20496;-81
2021/09/25 09:48:39;;;;;;;7.45;2.30;;;;;;;28.01;35.83;95259.00;4989465;28;20415;-83
2021/09/25 09:51:04;;;;;;;109.55;5.50;;;;;;;27.88;35.02;95233.72;4971673;28;20030;-80
2021/09/25 09:53:30;;;;;;;319.55;14.80;;;;;;;26.91;34.28;95239.41;4988794;28;20019;-80
2021/09/25 09:56:18;;;;;;;2.85;2.55;;;;;;;27.80;34.74;95246.81;4989605;28;20037;-83
2021/09/25 09:58:44;;;;;;;395.27;17.52;;;;;;;27.32;34.65;95241.03;4988400;28;20031;-88
2021/09/25 10:01:10;;;;;;;29.27;2.67;;;;;;;27.58;35.00;95249.81;4971615;28;21135;-86
2021/09/25 10:03:35;;;;;;;40.17;3.75;;;;;;;27.49;34.20;95244.22;4986978;28;20022;-80
2021/09/25 10:06:01;;;;;;;2.38;2.15;;;;;;;27.46;35.58;95247.41;4987976;28;20093;-81
2021/09/25 10:08:26;;;;;;;2.90;2.70;;;;;;;27.26;36.00;95228.78;4987308;28;20527;-84
2021/09/25 10:10:53;;;;;;;121.75;6.60;;;;;;;27.37;34.62;95243.66;4988744;28;20082;-86
2021/09/25 10:13:18;;;;;;;4.05;2.05;;;;;;;27.66;35.03;95244.72;4988586;28;20054;-81
2021/09/25 10:15:44;;;;;;;254.98;12.30;;;;;;;26.67;36.02;95244.44;4987842;28;20036;-80
2021/09/25 10:18:09;;;;;;;2.10;1.92;;;;;;;27.45;35.65;95240.50;4988031;28;20030;-88
2021/09/25 10:20:35;;;;;;;2.25;1.92;;;;;;;27.69;34.41;95236.19;4987267;28;20023;-88
2021/09/25 10:23:00;;;;;;;2.80;2.60;;;;;;;27.19;35.25;95226.41;4955335;28;20046;-82
2021/09/25 10:25:26;;;;;;;2.45;2.25;;;;;;;27.26;35.86;95249.28;4970767;28;20035;-85
2021/09/25 10:27:51;;;;;;;552.50;25.33;;;;;;;26.49;36.41;95247.59;4988788;28;20031;-81
2021/09/25 10:30:17;;;;;;;2.78;2.00;;;;;;;26.98;36.30;95247.94;4988711;28;20042;-85
2021/09/25 10:32:44;;;;;;;598.28;24.83;;;;;;;26.35;37.03;95239.31;4970522;28;20030;-79
2021/09/25 10:35:19;;;;;;;79.65;5.53;;;;;;;26.05;37.84;95241.84;4971361;28;20061;-86
2021/09/25 10:37:56;;;;;;;89.38;5.32;;;;;;;26.05;37.21;95236.53;4987844;28;20125;-82
2021/09/25 10:40:23;;;;;;;63.72;5.47;;;;;;;26.69;36.96;95221.84;4988992;28;20030;-79
2021/09/25 10:42:55;;;;;;;2.72;1.67;;;;;;;26.53;38.13;95228.19;4988008;28;20154;-79
2021/09/25 10:45:22;;;;;;;2.15;1.95;;;;;;;26.69;37.51;95227.16;4987976;28;20063;-81
2021/09/25 10:48:02;;;;;;;81.30;4.72;;;;;;;26.85;35.85;95220.00;4988994;28;20109;-79
2021/09/25 10:50:29;;;;;;;73.03;4.70;;;;;;;26.53;37.70;95230.03;4972091;28;20450;-86
2021/09/25 10:53:11;;;;;;;48.45;3.28;;;;;;;26.26;38.62;95221.50;4971562;28;20500;-80
2021/09/25 10:55:38;;;;;;;134.15;6.97;;;;;;;26.25;38.43;95211.91;4987483;28;20027;-82
2021/09/25 10:58:33;;;;;;;44.60;3.35;;;;;;;26.27;38.82;95207.13;4989243;28;20026;-81
2021/09/25 11:01:04;;;;;;;5.40;4.90;;;;;;;26.58;38.50;95212.28;4970171;28;20050;-83
2021/09/25 11:06:20;;;;;;;498.90;23.35;;;;;;;26.53;38.09;95206.94;4992723;28;20125;-80
2021/09/25 11:09:21;;;;;;;181.73;8.23;;;;;;;26.40;38.58;95202.13;4991800;28;20030;-86
2021/09/25 11:12:06;;;;;;;17.48;2.50;;;;;;;25.95;39.23;95199.31;4978957;28;20042;-86
2021/09/25 11:14:32;;;;;;;2.88;2.00;;;;;;;26.60;38.82;95196.84;4975042;28;20023;-82
2021/09/25 11:16:59;;;;;;;4.75;3.00;;;;;;;26.63;38.66;95206.94;4991181;28;20034;-79
2021/09/25 11:19:25;;;;;;;3.47;2.00;;;;;;;26.03;38.53;95199.63;4990927;28;20026;-79
2021/09/25 11:22:24;;;;;;;112.45;5.65;;;;;;;26.30;39.11;95186.16;4991533;28;20117;-83
2021/09/25 11:24:55;;;;;;;176.18;8.00;;;;;;;26.22;38.68;95189.34;4989773;28;20030;-81
2021/09/25 11:27:28;;;;;;;81.03;5.00;;;;;;;26.19;39.06;95189.88;4990745;28;20040;-80
2021/09/25 11:29:53;;;;;;;2.42;2.20;;;;;;;26.27;39.25;95183.22;4991094;28;20057;-80
2021/09/25 11:32:23;;;;;;;471.98;19.38;;;;;;;26.10;38.95;95194.84;4991866;28;20488;-81
2021/09/25 11:34:48;;;;;;;2.20;2.00;;;;;;;26.26;38.57;95190.41;4973676;28;20113;-79
2021/09/25 11:37:14;;;;;;;43.35;2.97;;;;;;;26.19;38.28;95189.88;4991280;28;20538;-80
2021/09/25 11:39:44;;;;;;;186.40;9.48;;;;;;;26.23;39.24;95187.47;4991893;28;20025;-85
2021/09/25 11:42:23;;;;;;;71.70;4.80;;;;;;;26.32;39.26;95178.75;4972966;28;20036;-78
2021/09/25 11:45:08;;;;;;;3.92;1.70;;;;;;;26.68;38.74;95195.53;4992245;28;20022;-81
2021/09/25 11:47:34;;;;;;;2.88;2.20;;;;;;;26.08;38.70;95189.00;4989066;28;20037;-79
2021/09/25 11:50:16;;;;;;;2.33;2.20;;;;;;;26.42;39.14;95170.78;4991529;28;20030;-79
2021/09/25 11:52:44;;;;;;;2.67;1.90;;;;;;;26.48;39.07;95187.53;4991707;28;20026;-80
2021/09/25 11:55:10;;;;;;;330.45;13.00;;;;;;;26.27;39.55;95161.97;4973638;28;20045;-79
2021/09/25 11:57:35;;;;;;;82.00;5.82;;;;;;;26.18;39.02;95156.38;4990529;28;20093;-79
2021/09/25 12:00:01;;;;;;;3.00;2.13;;;;;;;26.10;39.20;95175.47;4989024;28;20061;-79
2021/09/25 12:02:36;;;;;;;12.25;2.25;;;;;;;26.09;38.61;95164.03;4989978;28;20044;-80
2021/09/25 12:05:02;;;;;;;2.22;2.03;;;;;;;26.14;39.05;95152.63;4990374;28;20113;-85
2021/09/25 12:07:40;;;;;;;2.08;1.90;;;;;;;26.53;38.90;95168.91;4957817;28;20532;-81
2021/09/25 12:10:05;;;;;;;93.45;5.07;;;;;;;26.67;38.24;95172.66;4991235;28;20066;-84
2021/09/25 12:12:31;;;;;;;436.15;18.88;;;;;;;26.13;39.05;95172.28;4989559;28;20058;-87
2021/09/25 12:14:57;;;;;;;81.55;4.57;;;;;;;25.93;39.17;95159.75;4973518;28;20033;-88
2021/09/25 12:17:22;;;;;;;9.40;3.17;;;;;;;26.29;38.74;95158.00;4988981;28;20082;-81
2021/09/25 12:19:48;;;;;;;2.70;2.10;;;;;;;26.05;38.23;95160.31;4973469;28;20038;-78
2021/09/25 12:22:20;;;;;;;87.03;4.82;;;;;;;26.30;37.94;95140.22;4990211;28;20014;-85
2021/09/25 12:24:46;;;;;;;104.93;5.85;;;;;;;25.86;38.80;95163.69;4973272;28;20034;-80
2021/09/25 12:27:11;;;;;;;6.07;2.22;;;;;;;26.09;39.54;95163.25;4990738;28;20062;-78
2021/09/25 12:29:37;;;;;;;287.60;20.40;;;;;;;26.11;39.37;95161.91;4988880;28;20081;-79
2021/09/25 12:32:02;;;;;;;69.28;4.93;;;;;;;26.01;39.86;95158.44;4989948;28;20395;-80
2021/09/25 12:34:28;;;;;;;2.70;2.50;;;;;;;26.15;39.63;95165.66;4989557;28;20026;-84
2021/09/25 12:36:54;;;;;;;107.00;6.38;;;;;;;25.66;40.52;95156.47;4990898;28;20034;-80
2021/09/25 12:39:25;;;;;;;2.30;2.10;;;;;;;26.12;39.48;95149.44;4988161;28;20026;-80
2021/09/25 12:41:55;;;;;;;38.90;4.03;;;;;;;26.10;39.31;95148.91;4989198;28;20034;-79
2021/09/25 12:44:22;;;;;;;241.57;10.57;;;;;;;26.06;40.29;95153.16;4989309;28;20034;-87
2021/09/25 12:46:52;;;;;;;1.90;1.70;;;;;;;25.84;40.93;95139.28;4988167;28;20032;-84
2021/09/25 12:49:17;;;;;;;151.55;7.63;;;;;;;26.21;39.85;95155.84;4989303;28;20026;-83
2021/09/25 12:51:57;;;;;;;198.18;8.32;;;;;;;25.69;39.97;95114.28;4987834;28;20049;-80
2021/09/25 12:54:29;;;;;;;424.90;20.00;;;;;;;26.23;39.58;95153.75;4991203;28;20022;-87
2021/09/25 12:56:57;;;;;;;2.42;1.85;;;;;;;26.09;40.46;95144.66;4971942;28;20143;-82
2021/09/25 12:59:39;;;;;;;226.05;10.02;;;;;;;25.87;39.72;95133.44;4989245;28;20462;-79
2021/09/25 13:02:07;;;;;;;382.92;17.02;;;;;;;26.00;40.49;95151.53;4972743;28;20042;-79
2021/09/25 13:04:46;;;;;;;3.67;2.28;;;;;;;25.99;40.56;95152.59;4988974;28;20090;-80
2021/09/25 13:07:12;;;;;;;108.87;9.33;;;;;;;26.06;40.82;95132.69;4991476;28;20110;-84
2021/09/25 13:09:49;;;;;;;863.55;38.65;;;;;;;26.10;40.25;95140.94;4971248;28;20022;-79
2021/09/25 13:12:19;;;;;;;2.60;2.40;;;;;;;26.42;39.87;95144.22;4988675;28;20034;-84
2021/09/25 13:15:14;;;;;;;3.20;2.03;;;;;;;26.46;40.00;95141.78;4988346;28;20112;-80
2021/09/25 13:17:41;;;;;;;73.40;4.40;;;;;;;26.03;39.86;95127.13;4987292;28;20399;-80
2021/09/25 13:20:11;;;;;;;61.97;4.15;;;;;;;26.32;39.29;95135.44;4990127;28;20026;-79
2021/09/25 13:22:37;;;;;;;2.83;2.15;;;;;;;26.44;40.02;95142.06;4988818;28;20108;-80
2021/09/25 13:25:04;;;;;;;193.60;9.38;;;;;;;26.56;39.48;95131.97;4988723;28;20022;-83
2021/09/25 13:27:30;;;;;;;137.70;8.00;;;;;;;26.71;39.21;95133.84;4989540;28;20026;-83
2021/09/25 13:29:56;;;;;;;49.67;3.58;;;;;;;26.47;38.39;95128.25;4989033;28;20034;-78
2021/09/25 13:32:22;;;;;;;50.55;3.55;;;;;;;26.10;39.54;95106.41;4989697;28;20057;-81
2021/09/25 13:34:47;;;;;;;615.75;26.13;;;;;;;26.00;39.79;95136.41;4970983;28;20121;-79
2021/09/25 13:37:13;;;;;;;13.52;2.55;;;;;;;25.88;40.14;95119.88;4990178;28;20094;-79
2021/09/25 13:39:38;;;;;;;1.85;1.63;;;;;;;25.86;39.86;95129.19;4971204;28;20072;-80
2021/09/25 13:42:04;;;;;;;3.08;2.00;;;;;;;26.00;39.76;95136.41;4989659;28;20410;-80
2021/09/25 13:44:30;;;;;;;13.95;2.25;;;;;;;26.28;40.42;95134.34;4970815;28;20018;-79
2021/09/25 13:46:55;;;;;;;3.20;1.58;;;;;;;26.23;39.54;95135.16;4989162;28;20472;-81
2021/09/25 13:49:20;;;;;;;2.40;2.20;;;;;;;25.97;39.82;95133.47;4989504;28;20057;-79
2021/09/25 13:51:46;;;;;;;49.35;3.22;;;;;;;25.71;40.21;95123.84;4988471;28;20022;-79
2021/09/25 13:54:12;;;;;;;1.77;1.42;;;;;;;25.77;40.78;95114.81;4956083;28;20026;-81
2021/09/25 13:56:38;;;;;;;1.98;1.70;;;;;;;25.87;40.03;95122.81;4986851;28;20064;-79
2021/09/25 13:59:03;;;;;;;53.58;5.18;;;;;;;25.96;39.75;95134.53;4989014;28;20030;-79
2021/09/25 14:01:29;;;;;;;1.85;1.75;;;;;;;25.82;40.18;95142.19;4987640;28;20042;-79
2021/09/25 14:03:54;;;;;;;1.92;1.83;;;;;;;25.86;39.85;95134.50;4987847;28;20480;-79
2021/09/25 14:06:20;;;;;;;2.38;1.92;;;;;;;25.58;40.44;95130.44;4986971;28;20031;-78
2021/09/25 14:08:45;;;;;;;120.75;5.95;;;;;;;25.53;40.80;95128.53;4988836;28;20034;-80
2021/09/25 14:11:11;;;;;;;269.27;12.65;;;;;;;25.37;40.94;95118.09;4987699;28;20419;-82
2021/09/25 14:13:37;;;;;;;10.30;2.22;;;;;;;25.68;41.10;95131.28;4971069;28;20089;-78
2021/09/25 14:16:04;;;;;;;323.65;14.70;;;;;;;25.24;40.81;95084.88;4971661;28;20118;-79
2021/09/25 14:18:29;;;;;;;2.55;1.60;;;;;;;25.71;40.46;95123.84;4987703;28;20030;-80
2021/09/25 14:20:55;;;;;;;2.80;2.28;;;;;;;25.40;40.28;95136.94;4987497;28;20034;-78
2021/09/25 14:23:20;;;;;;;3.35;2.40;;;;;;;25.30;41.16;95136.88;4988106;28;20455;-79
2021/09/25 14:25:46;;;;;;;269.85;15.15;;;;;;;25.29;40.93;95115.94;4988921;28;20053;-79
2021/09/25 14:28:16;;;;;;;3.25;2.95;;;;;;;25.36;41.05;95112.00;4986831;28;20031;-81
2021/09/25 14:30:42;;;;;;;2.22;2.03;;;;;;;25.44;41.10;95098.22;4971303;28;20033;-80
2021/09/25 14:33:07;;;;;;;1.83;1.70;;;;;;;25.46;40.79;95119.22;4987383;28;20027;-79
2021/09/25 14:35:33;;;;;;;2.97;2.53;;;;;;;25.34;41.41;95114.09;4988001;28;20031;-79
2021/09/25 14:37:58;;;;;;;213.27;11.77;;;;;;;25.14;41.65;95114.03;4974962;28;20555;-79
2021/09/25 14:40:24;;;;;;;329.60;14.32;;;;;;;24.99;41.96;95127.16;4974461;28;20077;-80
2021/09/25 14:42:49;;;;;;;3.42;2.30;;;;;;;24.94;41.63;95098.78;4975454;28;20029;-79
2021/09/25 14:45:15;;;;;;;2.92;1.98;;;;;;;25.07;41.98;95139.97;4991646;28;20045;-79
2021/09/25 14:47:40;;;;;;;101.47;4.65;;;;;;;24.77;42.30;95118.50;4992331;28;20034;-78
2021/09/25 14:50:07;;;;;;;62.97;4.10;;;;;;;25.01;41.81;95147.06;4990913;28;20038;-79
2021/09/25 14:52:33;;;;;;;2.00;1.80;;;;;;;24.89;41.83;95124.44;4991623;28;20099;-78
2021/09/25 14:54:59;;;;;;;8.05;5.05;;;;;;;25.23;41.53;95141.66;4975304;28;20034;-79
2021/09/25 14:57:24;;;;;;;10.63;9.57;;;;;;;25.19;41.95;95145.84;4991284;28;20025;-81
2021/09/25 14:59:50;;;;;;;93.10;9.18;;;;;;;24.83;42.51;95142.19;4992788;28;20077;-79
2021/09/25 15:02:17;;;;;;;2.20;1.70;;;;;;;24.69;42.70;95129.59;4989654;28;20049;-79
2021/09/25 15:04:43;;;;;;;249.73;13.20;;;;;;;24.62;42.69;95130.63;4990950;28;20123;-79
2021/09/25 15:07:08;;;;;;;3.38;3.08;;;;;;;24.71;43.07;95152.13;4992241;28;20026;-87
2021/09/25 15:09:34;;;;;;;111.28;9.10;;;;;;;24.66;43.15;95149.44;4990220;28;20518;-79
2021/09/25 15:11:59;;;;;;;36.65;5.65;;;;;;;24.57;42.90;95149.09;4992352;28;20101;-80
2021/09/25 15:14:25;;;;;;;3.33;2.85;;;;;;;24.41;43.06;95126.19;4973188;28;20070;-79
2021/09/25 15:16:50;;;;;;;2.30;2.08;;;;;;;24.52;43.25;95149.06;4992236;28;20439;-79
2021/09/25 15:19:16;;;;;;;2.40;1.65;;;;;;;24.51;42.96;95144.81;4990679;28;20067;-79
2021/09/25 15:21:41;;;;;;;4.00;3.65;;;;;;;24.34;43.26;95146.78;4991028;28;20113;-79
2021/09/25 15:24:07;;;;;;;2.50;2.30;;;;;;;24.28;44.42;95142.50;4989699;28;20113;-79
2021/09/25 15:26:32;;;;;;;6.80;4.88;;;;;;;24.10;44.52;95132.22;4991696;28;20049;-79
2021/09/25 15:28:58;;;;;;;4.43;3.63;;;;;;;24.30;44.03;95156.28;4990689;28;20518;-79
2021/09/25 15:31:23;;;;;;;67.35;5.90;;;;;;;23.97;44.25;95136.06;4990589;28;20037;-79
2021/09/25 15:33:49;;;;;;;2.90;2.70;;;;;;;24.01;44.44;95142.47;4991882;28;20026;-79
2021/09/25 15:36:15;;;;;;;3.28;2.97;;;;;;;23.80;44.95;95130.06;4990669;28;20030;-79
2021/09/25 15:38:40;;;;;;;3.03;2.17;;;;;;;23.77;45.42;95145.63;4991008;28;20628;-79
2021/09/25 15:41:06;;;;;;;2.15;2.05;;;;;;;23.38;45.75;95105.19;4990781;28;20022;-79
2021/09/25 15:43:31;;;;;;;2.47;2.05;;;;;;;23.52;46.61;95159.38;4973960;28;20506;-81
2021/09/25 15:45:58;;;;;;;4.50;2.10;;;;;;;23.42;46.51;95157.41;4990826;28;20496;-82
2021/09/25 15:48:25;;;;;;;4.15;2.20;;;;;;;23.40;46.73;95166.63;4990126;28;20461;-80
2021/09/25 15:50:51;;;;;;;2.28;2.05;;;;;;;23.33;47.13;95163.31;4991625;28;20018;-80
2021/09/25 15:53:16;;;;;;;6.05;2.45;;;;;;;23.25;47.26;95164.53;4988733;28;20026;-82
2021/09/25 15:55:42;;;;;;;2.85;2.45;;;;;;;23.17;48.40;95167.59;4991465;28;20030;-83
2021/09/25 15:58:08;;;;;;;6.35;3.10;;;;;;;22.88;49.41;95168.75;4990105;28;20057;-83
2021/09/25 16:00:34;;;;;;;6.28;5.10;;;;;;;22.64;50.76;95165.44;4991061;28;20048;-84
2021/09/25 16:02:59;;;;;;;6.25;3.20;;;;;;;22.44;51.62;95165.91;4991231;28;20396;-83
2021/09/25 16:05:25;;;;;;;5.45;3.08;;;;;;;22.19;52.73;95164.69;4991215;28;20022;-83
2021/09/25 16:07:51;;;;;;;5.03;2.53;;;;;;;22.02;53.10;95172.56;4991788;28;20480;-84
2021/09/25 16:10:16;;;;;;;16.58;3.40;;;;;;;21.86;54.22;95174.09;4983162;28;20436;-83
2021/09/25 16:12:42;;;;;;;5.75;2.20;;;;;;;21.72;55.11;95182.50;4980745;28;20023;-82
2021/09/25 16:15:08;;;;;;;11.35;4.05;;;;;;;21.38;55.70;95174.44;4970276;28;20034;-83
2021/09/25 16:17:35;;;;;;;250.52;12.48;;;;;;;21.14;56.93;95183.41;4972497;28;20480;-87
2021/09/25 16:20:00;;;;;;;3.63;2.78;;;;;;;20.82;57.70;95171.59;4970636;28;20417;-86
2021/09/25 16:22:26;;;;;;;4.55;2.58;;;;;;;20.78;58.38;95186.22;4972839;28;20034;-86
2021/09/25 16:24:51;;;;;;;5.72;2.80;;;;;;;20.68;58.37;95191.28;4971545;28;20092;-88
2021/09/25 16:27:20;;;;;;;5.72;4.18;;;;;;;20.57;58.52;95187.59;4972094;28;20034;-87
2021/09/25 16:29:45;;;;;;;6.85;4.25;;;;;;;20.52;58.94;95186.66;4971533;28;20114;-87
2021/09/25 16:32:11;;;;;;;4.40;3.75;;;;;;;20.37;59.26;95195.78;4970940;28;20081;-87